createdAt,value
2022-08-09T00:01:23.534Z,11.70
2022-08-09T00:04:10.961Z,12.70
2022-08-09T00:06:39.795Z,11.43
2022-08-09T00:09:12.738Z,11.73
2022-08-09T00:11:58.513Z,13.13
2022-08-09T00:14:38.013Z,13.80
2022-08-09T00:17:07.033Z,12.95
2022-08-09T00:19:35.104Z,12.20
2022-08-09T00:22:04.420Z,13.25
2022-08-09T00:24:33.177Z,12.38
2022-08-09T00:27:01.609Z,14.23
2022-08-09T00:30:09.824Z,13.07
2022-08-09T00:32:26.858Z,13.07
2022-08-09T00:34:55.829Z,13.32
2022-08-09T00:37:23.985Z,12.27
2022-08-09T00:40:12.838Z,13.38
2022-08-09T00:44:15.995Z,12.38
2022-08-09T00:45:28.513Z,12.45
2022-08-09T00:47:56.481Z,13.75
2022-08-09T00:50:25.396Z,15.20
2022-08-09T00:52:55.369Z,14.77
2022-08-09T00:56:03.268Z,13.95
2022-08-09T00:58:14.765Z,13.63
2022-08-09T01:00:53.896Z,10.80
2022-08-09T01:03:33.426Z,11.70
2022-08-09T01:06:17.744Z,12.80
2022-08-09T01:09:00.007Z,13.43
2022-08-09T01:14:45.037Z,11.57
2022-08-09T01:17:24.380Z,12.25
2022-08-09T01:20:10.734Z,12.98
2022-08-09T01:23:04.089Z,12.82
2022-08-09T01:26:13.504Z,12.05
2022-08-09T01:28:47.653Z,13.75
2022-08-09T01:32:30.335Z,15.25
2022-08-09T01:34:12.999Z,14.40
2022-08-09T01:36:46.418Z,15.00
2022-08-09T01:39:17.830Z,14.45
2022-08-09T01:41:55.559Z,14.98
2022-08-09T01:44:32.642Z,14.60
2022-08-09T01:47:03.974Z,14.38
2022-08-09T01:49:39.202Z,15.63
2022-08-09T01:52:14.682Z,13.57
2022-08-09T01:54:49.544Z,13.80
2022-08-09T01:57:23.818Z,13.80
2022-08-09T02:00:00.213Z,12.75
2022-08-09T02:02:44.995Z,12.40
2022-08-09T02:08:40.051Z,14.27
2022-08-09T02:10:40.382Z,12.43
2022-08-09T02:13:12.923Z,13.52
2022-08-09T02:16:00.543Z,13.75
2022-08-09T02:18:32.623Z,12.32
2022-08-09T02:21:11.510Z,13.98
2022-08-09T02:23:52.639Z,13.15
2022-08-09T02:26:25.323Z,12.32
2022-08-09T02:29:03.165Z,14.07
2022-08-09T02:31:36.721Z,13.88
2022-08-09T02:34:41.748Z,12.80
2022-08-09T02:37:20.609Z,13.80
2022-08-09T02:40:01.852Z,13.47
2022-08-09T02:42:35.308Z,14.20
2022-08-09T02:45:08.333Z,13.07
2022-08-09T02:47:58.121Z,13.13
2022-08-09T02:50:54.350Z,12.85
2022-08-09T02:53:31.611Z,13.30
2022-08-09T02:56:04.572Z,14.73
2022-08-09T02:58:36.508Z,13.05
2022-08-09T03:01:08.073Z,13.57
2022-08-09T03:04:17.774Z,13.32
2022-08-09T03:06:29.327Z,13.32
2022-08-09T03:08:58.205Z,13.13
2022-08-09T03:11:29.573Z,12.75
2022-08-09T03:14:16.136Z,13.50
2022-08-09T03:16:48.259Z,12.85
2022-08-09T03:19:57.859Z,12.18
2022-08-09T03:22:12.514Z,12.27
2022-08-09T03:24:52.068Z,12.25
2022-08-09T03:27:22.287Z,11.60
2022-08-09T03:29:57.729Z,11.93
2022-08-09T03:32:37.160Z,12.35
2022-08-09T03:35:24.492Z,11.95
2022-08-09T03:37:55.775Z,11.70
2022-08-09T03:40:31.045Z,10.82
2022-08-09T03:42:59.121Z,11.65
2022-08-09T03:46:04.066Z,12.32
2022-08-09T03:48:18.971Z,12.73
2022-08-09T03:50:57.687Z,11.63
2022-08-09T03:53:32.396Z,11.73
2022-08-09T03:56:06.112Z,12.48
2022-08-09T03:58:34.183Z,11.48
2022-08-09T04:01:03.000Z,11.50
2022-08-09T04:03:46.123Z,11.95
2022-08-09T04:06:22.852Z,11.02
2022-08-09T04:08:53.480Z,12.27
2022-08-09T04:11:21.924Z,11.85
2022-08-09T04:14:53.505Z,11.45
2022-08-09T04:16:40.631Z,11.98
2022-08-09T04:19:10.917Z,11.52
2022-08-09T04:21:45.331Z,12.20
2022-08-09T04:24:15.673Z,12.93
2022-08-09T04:26:43.695Z,12.18
2022-08-09T04:29:15.603Z,12.85
2022-08-09T04:31:47.040Z,12.70
2022-08-09T04:34:19.017Z,12.48
2022-08-09T04:36:58.740Z,12.82
2022-08-09T04:39:30.946Z,13.68
2022-08-09T04:42:02.587Z,13.75
2022-08-09T04:44:30.835Z,12.35
2022-08-09T04:47:04.385Z,14.35
2022-08-09T04:49:53.211Z,13.27
2022-08-09T04:52:28.725Z,12.98
2022-08-09T04:55:59.083Z,13.25
2022-08-09T04:58:29.739Z,12.95
2022-08-09T05:00:58.246Z,13.70
2022-08-09T05:03:40.996Z,12.43
2022-08-09T05:06:22.133Z,11.98
2022-08-09T05:09:00.798Z,12.63
2022-08-09T05:11:32.406Z,13.23
2022-08-09T05:14:06.786Z,11.02
2022-08-09T05:16:58.085Z,12.10
2022-08-09T05:19:26.279Z,11.88
2022-08-09T05:22:33.393Z,11.38
2022-08-09T05:25:02.841Z,11.77
2022-08-09T05:27:31.772Z,10.82
2022-08-09T05:30:00.203Z,10.80
2022-08-09T05:32:31.812Z,12.23
2022-08-09T05:35:00.704Z,10.88
2022-08-09T05:37:28.730Z,10.38
2022-08-09T05:40:07.485Z,10.25
2022-08-09T05:42:35.741Z,10.52
2022-08-09T05:45:05.802Z,10.85
2022-08-09T05:47:33.726Z,9.85
2022-08-09T05:50:35.050Z,10.40
2022-08-09T05:52:53.720Z,10.30
2022-08-09T05:55:23.985Z,10.45
2022-08-09T05:57:56.515Z,10.50
2022-08-09T06:00:28.814Z,10.38
2022-08-09T06:02:58.650Z,11.30
2022-08-09T06:05:49.881Z,9.98
2022-08-09T06:08:19.110Z,10.18
2022-08-09T06:10:55.934Z,9.00
2022-08-09T06:13:24.878Z,9.30
2022-08-09T06:15:53.016Z,9.05
2022-08-09T06:18:25.082Z,8.13
2022-08-09T06:20:57.064Z,8.13
2022-08-09T06:23:58.206Z,6.60
2022-08-09T06:26:20.805Z,7.10
2022-08-09T06:29:00.663Z,6.57
2022-08-09T06:31:40.553Z,6.88
2022-08-09T06:34:23.262Z,8.18
2022-08-09T06:36:59.523Z,6.90
2022-08-09T06:39:48.499Z,6.75
2022-08-09T06:42:25.008Z,6.57
2022-08-09T06:45:00.179Z,7.38
2022-08-09T06:47:39.780Z,7.65
2022-08-09T06:50:13.784Z,7.55
2022-08-09T06:52:48.753Z,7.07
2022-08-09T06:55:23.301Z,7.10
2022-08-09T06:58:02.975Z,6.80
2022-08-09T07:00:55.579Z,7.30
2022-08-09T07:03:28.031Z,7.30
2022-08-09T07:06:03.547Z,7.53
2022-08-09T07:08:35.282Z,8.48
2022-08-09T07:11:06.246Z,8.27
2022-08-09T07:14:04.156Z,8.15
2022-08-09T07:16:39.085Z,7.47
2022-08-09T07:19:15.433Z,7.93
2022-08-09T07:21:55.662Z,8.52
2022-08-09T07:24:32.556Z,7.72
2022-08-09T07:27:33.822Z,6.90
2022-08-09T07:30:00.382Z,7.40
2022-08-09T07:32:33.095Z,7.10
2022-08-09T07:35:08.155Z,7.15
2022-08-09T07:37:45.768Z,7.20
2022-08-09T07:40:16.753Z,7.57
2022-08-09T07:45:38.325Z,7.25
2022-08-09T07:48:29.496Z,6.78
2022-08-09T07:51:09.395Z,6.15
2022-08-09T07:54:07.801Z,7.13
2022-08-09T07:56:39.006Z,6.60
2022-08-09T07:59:24.941Z,6.47
2022-08-09T08:01:56.094Z,6.35
2022-08-09T08:04:31.647Z,7.15
2022-08-09T08:07:14.933Z,6.63
2022-08-09T08:09:55.102Z,6.13
2022-08-09T08:12:43.177Z,6.82
2022-08-09T08:15:14.244Z,6.60
2022-08-09T08:17:54.601Z,6.25
2022-08-09T08:20:30.451Z,6.32
2022-08-09T08:23:17.004Z,6.50
2022-08-09T08:25:49.953Z,6.47
2022-08-09T08:28:32.374Z,6.47
2022-08-09T08:31:13.789Z,6.55
2022-08-09T08:33:52.756Z,6.75
2022-08-09T08:36:29.805Z,6.82
2022-08-09T08:38:59.609Z,6.90
2022-08-09T08:41:42.026Z,7.65
2022-08-09T08:44:23.018Z,7.05
2022-08-09T08:46:59.580Z,7.28
2022-08-09T08:49:46.349Z,6.82
2022-08-09T08:55:07.357Z,6.70
2022-08-09T08:57:36.085Z,6.32
2022-08-09T09:00:16.809Z,5.70
2022-08-09T09:02:53.510Z,5.88
2022-08-09T09:05:57.396Z,10.52
2022-08-09T09:08:30.459Z,6.63
2022-08-09T09:11:05.698Z,6.95
2022-08-09T09:13:54.847Z,5.90
2022-08-09T09:19:37.427Z,6.47
2022-08-09T09:22:03.853Z,6.00
2022-08-09T09:24:37.249Z,6.25
2022-08-09T09:27:07.448Z,6.07
2022-08-09T09:30:12.159Z,6.38
2022-08-09T09:32:34.507Z,5.88
2022-08-09T09:35:09.582Z,6.25
2022-08-09T09:37:41.003Z,6.65
2022-08-09T09:40:11.593Z,7.88
2022-08-09T09:42:43.102Z,6.30
2022-08-09T09:46:38.871Z,6.53
2022-08-09T09:48:59.485Z,5.85
2022-08-09T09:51:38.483Z,6.63
2022-08-09T09:54:21.058Z,6.57
2022-08-09T09:56:53.268Z,6.85
2022-08-09T09:59:38.513Z,6.35
2022-08-09T10:02:06.751Z,6.43
2022-08-09T10:04:36.014Z,6.60
2022-08-09T10:07:09.732Z,6.47
2022-08-09T10:09:54.709Z,12.65
2022-08-09T10:12:28.427Z,11.23
2022-08-09T10:15:50.657Z,8.60
2022-08-09T10:18:11.747Z,6.15
2022-08-09T10:20:45.049Z,6.10
2022-08-09T10:23:23.741Z,6.55
2022-08-09T10:26:08.202Z,5.93
2022-08-09T10:28:41.037Z,6.60
2022-08-09T10:34:08.108Z,5.70
2022-08-09T10:36:50.205Z,5.18
2022-08-09T10:39:19.285Z,5.15
2022-08-09T10:41:48.265Z,5.20
2022-08-09T10:44:23.046Z,5.60
2022-08-09T10:48:13.186Z,5.47
2022-08-09T10:50:14.813Z,5.68
2022-08-09T10:53:04.600Z,5.63
2022-08-09T10:55:35.811Z,5.70
2022-08-09T10:58:33.557Z,5.35
2022-08-09T11:03:05.764Z,6.20
2022-08-09T11:04:30.477Z,6.13
2022-08-09T11:12:29.725Z,6.32
2022-08-09T11:15:19.084Z,6.05
2022-08-09T11:17:53.764Z,6.75
2022-08-09T11:20:45.073Z,6.80
2022-08-09T11:23:13.690Z,6.82
2022-08-09T11:25:48.192Z,6.50
2022-08-09T11:28:54.329Z,5.95
2022-08-09T11:31:49.466Z,6.63
2022-08-09T11:34:36.190Z,6.97
2022-08-09T11:37:07.471Z,6.70
2022-08-09T11:40:04.791Z,6.40
2022-08-09T11:42:49.139Z,6.78
2022-08-09T11:45:22.874Z,6.60
2022-08-09T11:48:02.723Z,6.90
2022-08-09T11:51:38.004Z,6.97
2022-08-09T11:54:00.490Z,6.88
2022-08-09T11:56:41.298Z,6.93
2022-08-09T11:59:12.236Z,7.55
2022-08-09T12:02:17.595Z,7.00
2022-08-09T12:04:37.662Z,7.18
2022-08-09T12:07:08.424Z,6.97
2022-08-09T12:09:37.077Z,6.95
2022-08-09T12:12:20.413Z,6.32
2022-08-09T12:15:07.881Z,6.35
2022-08-09T12:17:44.593Z,7.25
2022-08-09T12:20:24.586Z,8.02
2022-08-09T12:22:55.768Z,8.80
2022-08-09T12:25:36.239Z,8.70
2022-08-09T12:28:58.371Z,8.43
2022-08-09T12:31:02.932Z,7.20
2022-08-09T12:44:24.603Z,1.45
2022-08-09T12:46:52.850Z,4.30
2022-08-09T12:49:22.805Z,1.98
2022-08-09T12:52:01.673Z,1.05
2022-08-09T12:56:12.519Z,2.20
2022-08-09T12:57:46.500Z,1.33
2022-08-09T13:03:03.056Z,2.97
2022-08-09T13:05:52.384Z,2.30
2022-08-09T13:08:39.740Z,2.25
2022-08-09T13:11:23.106Z,1.63
2022-08-09T13:14:36.885Z,2.03
2022-08-09T13:17:08.588Z,1.95
2022-08-09T13:20:10.070Z,2.40
2022-08-09T13:22:37.410Z,1.60
2022-08-09T13:25:19.318Z,2.20
2022-08-09T13:27:55.177Z,1.70
2022-08-09T13:31:11.024Z,1.40
2022-08-09T13:33:23.637Z,3.03
2022-08-09T13:36:39.066Z,1.58
2022-08-09T13:38:57.570Z,1.35
2022-08-09T13:41:58.761Z,2.08
2022-08-09T13:44:17.037Z,1.33
2022-08-09T13:47:25.324Z,1.63
2022-08-09T13:49:55.862Z,2.35
2022-08-09T13:52:25.104Z,16.23
2022-08-09T13:55:00.529Z,15.52
2022-08-09T13:57:40.246Z,15.88
2022-08-09T14:00:15.839Z,17.50
2022-08-09T14:03:02.171Z,15.35
2022-08-09T14:05:59.912Z,15.90
2022-08-09T14:08:21.547Z,15.88
2022-08-09T14:10:52.284Z,13.55
2022-08-09T14:14:16.390Z,14.70
2022-08-09T14:16:19.265Z,16.33
2022-08-09T14:18:50.580Z,16.55
2022-08-09T14:21:23.442Z,16.75
2022-08-09T14:23:56.694Z,16.45
2022-08-09T14:26:32.575Z,16.38
2022-08-09T14:29:25.053Z,18.38
2022-08-09T14:34:32.435Z,18.48
2022-08-09T14:37:07.436Z,17.67
2022-08-09T14:39:40.450Z,18.38
2022-08-09T14:42:30.332Z,17.92
2022-08-09T14:46:54.917Z,18.55
2022-08-09T14:47:58.479Z,17.75
2022-08-09T14:50:30.492Z,17.45
2022-08-09T14:53:00.734Z,17.15
2022-08-09T14:58:15.744Z,16.40
2022-08-09T15:00:48.223Z,15.15
2022-08-09T15:03:20.684Z,17.73
2022-08-09T15:05:52.529Z,16.45
2022-08-09T15:08:23.836Z,16.60
2022-08-09T15:11:01.346Z,18.25
2022-08-09T15:13:56.837Z,16.40
2022-08-09T15:16:21.028Z,16.42
2022-08-09T15:18:49.702Z,16.02
2022-08-09T15:21:56.065Z,17.88
2022-08-09T15:24:12.562Z,17.63
2022-08-09T15:26:45.282Z,17.08
2022-08-09T15:30:48.302Z,15.18
2022-08-09T15:32:03.945Z,15.70
2022-08-09T15:34:35.279Z,13.70
2022-08-09T15:37:24.274Z,13.30
2022-08-09T15:40:16.347Z,11.25
2022-08-09T15:42:50.532Z,13.07
2022-08-09T15:45:21.766Z,13.23
2022-08-09T15:48:05.173Z,13.75
2022-08-09T15:50:43.882Z,13.45
2022-08-09T15:54:02.488Z,13.98
2022-08-09T15:58:47.653Z,13.10
2022-08-09T16:01:15.758Z,11.50
2022-08-09T16:03:43.922Z,11.80
2022-08-09T16:06:29.341Z,14.07
2022-08-09T16:09:01.128Z,13.82
2022-08-09T16:11:33.306Z,11.93
2022-08-09T16:14:06.973Z,14.02
2022-08-09T16:16:42.024Z,11.80
2022-08-09T16:19:16.331Z,14.25
2022-08-09T16:21:51.811Z,13.00
2022-08-09T16:24:32.927Z,12.35
2022-08-09T16:27:05.258Z,12.30
2022-08-09T16:29:37.401Z,11.52
2022-08-09T16:32:35.030Z,11.27
2022-08-09T16:35:03.408Z,9.73
2022-08-09T16:37:54.809Z,10.77
2022-08-09T16:40:20.645Z,10.98
2022-08-09T16:42:59.239Z,9.55
2022-08-09T16:45:30.134Z,10.37
2022-08-09T16:48:41.894Z,10.70
2022-08-09T16:50:58.783Z,10.43
2022-08-09T16:53:32.256Z,10.32
2022-08-09T16:56:06.016Z,10.77
2022-08-09T16:58:36.105Z,9.93
2022-08-09T17:01:05.157Z,10.25
2022-08-09T17:03:33.502Z,10.65
2022-08-09T17:06:07.818Z,10.85
2022-08-09T17:09:02.771Z,11.00
2022-08-09T17:11:41.105Z,11.32
2022-08-09T17:14:26.457Z,14.18
2022-08-09T17:17:02.455Z,14.13
2022-08-09T17:20:05.090Z,14.50
2022-08-09T17:22:23.506Z,16.05
2022-08-09T17:24:54.858Z,14.30
2022-08-09T17:27:23.698Z,16.02
2022-08-09T17:29:52.496Z,16.25
2022-08-09T17:32:34.731Z,17.05
2022-08-09T17:35:11.750Z,15.23
2022-08-09T17:38:02.199Z,15.80
2022-08-09T17:40:31.869Z,18.48
2022-08-09T17:43:32.930Z,14.80
2022-08-09T17:46:04.317Z,11.93
2022-08-09T17:48:46.499Z,13.68
2022-08-09T17:51:20.815Z,13.15
2022-08-09T17:53:52.662Z,14.48
2022-08-09T17:58:58.764Z,15.25
2022-08-09T18:02:03.219Z,15.93
2022-08-09T18:07:34.457Z,14.23
2022-08-09T18:10:05.048Z,13.63
2022-08-09T18:12:40.807Z,14.45
2022-08-09T18:15:21.502Z,14.05
2022-08-09T18:18:09.341Z,14.70
2022-08-09T18:21:19.008Z,13.10
2022-08-09T18:24:12.503Z,12.30
2022-08-09T18:26:29.612Z,13.77
2022-08-09T18:30:42.990Z,13.18
2022-08-09T18:31:54.918Z,13.55
2022-08-09T18:34:24.400Z,13.88
2022-08-09T18:36:53.358Z,13.43
2022-08-09T18:39:25.724Z,13.32
2022-08-09T18:42:05.546Z,13.88
2022-08-09T18:44:36.812Z,12.93
2022-08-09T18:47:12.510Z,12.27
2022-08-09T18:49:46.620Z,13.50
2022-08-09T18:52:18.839Z,12.63
2022-08-09T18:54:53.603Z,13.98
2022-08-09T18:57:23.141Z,12.82
2022-08-09T18:59:55.569Z,13.43
2022-08-09T19:02:30.880Z,14.75
2022-08-09T19:05:19.768Z,14.27
2022-08-09T19:08:04.369Z,13.30
2022-08-09T19:10:39.286Z,12.85
2022-08-09T19:13:22.056Z,14.55
2022-08-09T19:15:52.808Z,14.13
2022-08-09T19:18:33.265Z,14.35
2022-08-09T19:21:09.544Z,14.38
2022-08-09T19:24:39.447Z,14.23
2022-08-09T19:26:31.659Z,15.15
2022-08-09T19:29:03.136Z,14.88
2022-08-09T19:31:45.532Z,14.52
2022-08-09T19:34:21.636Z,13.38
2022-08-09T19:36:55.725Z,13.32
2022-08-09T19:39:29.091Z,12.35
2022-08-09T19:42:15.143Z,13.32
2022-08-09T19:44:50.802Z,11.68
2022-08-09T19:47:23.457Z,11.95
2022-08-09T19:50:06.931Z,11.77
2022-08-09T19:52:37.216Z,12.25
2022-08-09T20:00:26.085Z,12.35
2022-08-09T20:04:18.263Z,13.73
2022-08-09T20:05:46.816Z,14.82
2022-08-09T20:08:33.238Z,16.25
2022-08-09T20:11:04.823Z,16.02
2022-08-09T20:13:37.183Z,15.73
2022-08-09T20:16:33.820Z,15.73
2022-08-09T20:19:41.894Z,15.38
2022-08-09T20:21:56.355Z,17.38
2022-08-09T20:24:29.424Z,16.60
2022-08-09T20:27:08.255Z,15.48
2022-08-09T20:29:38.920Z,14.65
2022-08-09T20:32:29.245Z,14.80
2022-08-09T20:34:57.675Z,13.48
2022-08-09T20:37:25.785Z,15.88
2022-08-09T20:40:19.239Z,14.13
2022-08-09T20:43:12.275Z,14.02
2022-08-09T20:45:59.461Z,12.98
2022-08-09T20:51:00.968Z,13.50
2022-08-09T20:53:37.594Z,12.95
2022-08-09T20:56:20.558Z,13.18
2022-08-09T20:58:54.684Z,13.23
2022-08-09T21:01:35.484Z,12.20
2022-08-09T21:05:51.898Z,11.48
2022-08-09T21:07:12.295Z,12.23
2022-08-09T21:09:45.523Z,14.50
2022-08-09T21:14:49.087Z,14.65
2022-08-09T21:18:21.642Z,13.15
2022-08-09T21:20:23.109Z,13.02
2022-08-09T21:22:54.878Z,13.05
2022-08-09T21:25:44.512Z,13.48
2022-08-09T21:28:35.015Z,14.73
2022-08-09T21:31:16.131Z,13.43
2022-08-09T21:33:53.158Z,12.00
2022-08-09T21:36:28.520Z,13.45
2022-08-09T21:38:59.462Z,14.65
2022-08-09T21:42:03.661Z,13.18
2022-08-09T21:44:34.062Z,13.73
2022-08-09T21:47:05.463Z,12.73
2022-08-09T21:49:40.378Z,13.35
2022-08-09T21:52:17.540Z,13.55
2022-08-09T21:55:12.927Z,13.43
2022-08-09T21:57:59.260Z,12.82
2022-08-09T22:00:32.133Z,11.35
2022-08-09T22:03:05.858Z,12.05
2022-08-09T22:05:41.947Z,11.20
2022-08-09T22:08:14.731Z,12.40
2022-08-09T22:11:00.969Z,12.65
2022-08-09T22:16:07.190Z,11.80
2022-08-09T22:18:37.618Z,12.15
2022-08-09T22:21:09.323Z,12.85
2022-08-09T22:24:01.601Z,12.23
2022-08-09T22:26:34.815Z,12.05
2022-08-09T22:29:09.522Z,11.82
2022-08-09T22:31:44.646Z,10.93
2022-08-09T22:34:27.044Z,12.07
2022-08-09T22:36:56.478Z,11.73
2022-08-09T22:39:55.979Z,12.73
2022-08-09T22:42:21.292Z,11.77
2022-08-09T22:45:05.141Z,11.52
2022-08-09T22:48:15.361Z,12.07
2022-08-09T22:50:32.693Z,10.75
2022-08-09T22:53:03.497Z,11.68
2022-08-09T22:56:06.283Z,10.68
2022-08-09T22:58:33.150Z,10.43
2022-08-09T23:01:06.025Z,11.68
2022-08-09T23:04:05.305Z,11.52
2022-08-09T23:06:32.832Z,11.25
2022-08-09T23:09:06.162Z,11.75
2022-08-09T23:11:34.258Z,10.90
2022-08-09T23:14:03.636Z,11.50
2022-08-09T23:16:32.257Z,11.13
2022-08-09T23:19:01.399Z,11.18
2022-08-09T23:21:33.455Z,10.77
2022-08-09T23:26:39.799Z,10.85
2022-08-09T23:29:13.579Z,11.73
2022-08-09T23:31:41.814Z,12.45
2022-08-09T23:34:09.676Z,13.30
2022-08-09T23:36:37.565Z,13.13
2022-08-09T23:39:07.521Z,13.07
2022-08-09T23:41:35.736Z,12.48
2022-08-09T23:44:04.029Z,13.32
2022-08-09T23:46:33.022Z,13.18
2022-08-09T23:49:01.683Z,12.80
2022-08-09T23:51:29.858Z,13.05
2022-08-09T23:54:02.547Z,13.45
2022-08-09T23:56:52.480Z,13.82
2022-08-09T23:59:21.428Z,14.05
